createdAt,value
2022-09-05T00:02:19.607Z,3.33
2022-09-05T00:04:49.056Z,2.90
2022-09-05T00:07:37.391Z,3.30
2022-09-05T00:10:21.301Z,2.90
2022-09-05T00:13:07.145Z,3.07
2022-09-05T00:15:37.542Z,2.97
2022-09-05T00:21:10.470Z,2.80
2022-09-05T00:24:25.045Z,2.83
2022-09-05T00:24:50.309Z,3.03
2022-09-05T00:27:35.299Z,2.90
2022-09-05T00:31:50.792Z,3.00
2022-09-05T00:33:29.141Z,3.40
2022-09-05T00:36:23.926Z,2.93
2022-09-05T00:39:18.112Z,3.03
2022-09-05T00:41:49.553Z,2.93
2022-09-05T00:44:19.031Z,3.20
2022-09-05T00:46:57.852Z,3.20
2022-09-05T00:49:32.977Z,2.90
2022-09-05T00:52:21.736Z,3.00
2022-09-05T00:55:09.511Z,3.33
2022-09-05T00:58:13.751Z,3.20
2022-09-05T01:01:01.156Z,3.50
2022-09-05T01:03:52.545Z,3.27
2022-09-05T01:06:45.283Z,3.17
2022-09-05T01:09:25.111Z,2.93
2022-09-05T01:12:35.006Z,3.17
2022-09-05T01:15:20.937Z,3.10
2022-09-05T01:17:56.634Z,3.10
2022-09-05T01:20:53.379Z,3.30
2022-09-05T01:23:40.991Z,2.80
2022-09-05T01:26:07.581Z,2.93
2022-09-05T01:29:15.589Z,3.00
2022-09-05T01:31:50.411Z,3.00
2022-09-05T01:34:39.187Z,3.30
2022-09-05T01:37:26.687Z,2.57
2022-09-05T01:40:19.628Z,2.80
2022-09-05T01:43:36.885Z,2.77
2022-09-05T01:46:22.633Z,3.20
2022-09-05T01:48:51.367Z,2.80
2022-09-05T01:51:31.418Z,2.97
2022-09-05T01:54:07.296Z,3.30
2022-09-05T01:56:55.337Z,3.10
2022-09-05T01:59:40.911Z,3.00
2022-09-05T02:02:56.256Z,3.33
2022-09-05T02:05:51.867Z,3.40
2022-09-05T02:08:36.865Z,3.10
2022-09-05T02:11:08.421Z,2.90
2022-09-05T02:13:34.928Z,2.70
2022-09-05T02:16:31.400Z,2.87
2022-09-05T02:19:10.636Z,3.20
2022-09-05T02:21:56.114Z,3.10
2022-09-05T02:24:46.197Z,3.10
2022-09-05T02:28:04.292Z,3.53
2022-09-05T02:30:25.386Z,3.50
2022-09-05T02:32:57.773Z,3.40
2022-09-05T02:35:46.060Z,2.97
2022-09-05T02:41:20.285Z,3.27
2022-09-05T02:45:13.048Z,3.43
2022-09-05T02:45:16.850Z,3.00
2022-09-05T02:47:23.487Z,3.60
2022-09-05T02:54:00.468Z,3.47
2022-09-05T02:57:29.370Z,3.20
2022-09-05T02:57:39.224Z,3.47
2022-09-05T02:59:09.118Z,3.10
2022-09-05T03:02:23.156Z,3.10
2022-09-05T03:05:07.135Z,3.43
2022-09-05T03:07:45.813Z,3.50
2022-09-05T03:10:49.836Z,3.20
2022-09-05T03:13:48.973Z,3.50
2022-09-05T03:16:47.638Z,3.00
2022-09-05T03:19:46.703Z,3.60
2022-09-05T03:22:22.300Z,3.20
2022-09-05T03:24:55.964Z,3.50
2022-09-05T03:28:04.084Z,3.60
2022-09-05T03:31:22.262Z,3.50
2022-09-05T03:34:14.175Z,3.50
2022-09-05T03:36:59.439Z,3.83
2022-09-05T03:39:47.833Z,3.30
2022-09-05T03:42:30.446Z,3.30
2022-09-05T03:45:16.330Z,3.70
2022-09-05T03:48:27.883Z,3.63
2022-09-05T03:56:56.911Z,3.47
2022-09-05T03:57:25.710Z,3.97
2022-09-05T03:58:41.887Z,3.70
2022-09-05T04:02:45.079Z,3.07
2022-09-05T04:08:18.542Z,3.37
2022-09-05T04:08:24.099Z,3.10
2022-09-05T04:10:52.454Z,3.37
2022-09-05T04:13:30.991Z,3.77
2022-09-05T04:16:18.309Z,3.43
2022-09-05T04:19:05.707Z,3.37
2022-09-05T04:21:38.890Z,3.30
2022-09-05T04:24:13.551Z,3.53
2022-09-05T04:27:17.602Z,3.53
2022-09-05T04:30:38.865Z,3.57
2022-09-05T04:33:37.396Z,3.60
2022-09-05T04:36:26.601Z,3.27
2022-09-05T04:39:24.890Z,3.30
2022-09-05T04:42:24.152Z,3.80
2022-09-05T04:44:57.120Z,3.53
2022-09-05T04:47:38.104Z,3.33
2022-09-05T04:50:23.384Z,3.80
2022-09-05T04:53:04.200Z,3.60
2022-09-05T04:55:41.580Z,3.17
2022-09-05T04:59:29.328Z,3.57
2022-09-05T05:06:00.969Z,3.87
2022-09-05T05:06:12.750Z,3.40
2022-09-05T05:07:32.848Z,3.40
2022-09-05T05:10:52.675Z,3.83
2022-09-05T05:17:59.705Z,3.70
2022-09-05T05:18:12.505Z,3.90
2022-09-05T05:19:21.692Z,3.40
2022-09-05T05:21:55.206Z,3.70
2022-09-05T05:24:36.548Z,3.80
2022-09-05T05:27:32.614Z,3.60
2022-09-05T05:30:04.860Z,3.40
2022-09-05T05:32:46.221Z,3.67
2022-09-05T05:35:23.490Z,4.10
2022-09-05T05:38:04.078Z,3.90
2022-09-05T05:40:39.740Z,4.47
2022-09-05T05:43:34.524Z,3.10
2022-09-05T05:46:01.935Z,4.03
2022-09-05T05:48:37.142Z,4.33
2022-09-05T05:51:51.928Z,4.00
2022-09-05T05:54:35.486Z,3.47
2022-09-05T05:57:30.133Z,3.83
2022-09-05T06:00:43.462Z,3.37
2022-09-05T06:03:42.958Z,3.70
2022-09-05T06:06:37.732Z,3.87
2022-09-05T06:14:47.986Z,3.43
2022-09-05T06:15:00.310Z,3.53
2022-09-05T06:15:26.733Z,3.57
2022-09-05T06:17:53.969Z,3.67
2022-09-05T06:22:04.999Z,4.10
2022-09-05T06:24:15.729Z,3.90
2022-09-05T06:27:23.188Z,3.97
2022-09-05T06:29:55.712Z,3.47
2022-09-05T06:32:43.138Z,3.40
2022-09-05T06:35:40.474Z,3.10
2022-09-05T06:38:24.589Z,3.47
2022-09-05T06:41:21.310Z,3.23
2022-09-05T06:44:06.414Z,2.70
2022-09-05T06:47:22.835Z,2.93
2022-09-05T06:49:46.099Z,2.80
2022-09-05T06:52:29.027Z,2.77
2022-09-05T06:55:27.485Z,2.80
2022-09-05T06:58:21.935Z,2.90
2022-09-05T07:00:59.686Z,2.77
2022-09-05T07:03:41.342Z,2.80
2022-09-05T07:06:19.830Z,2.73
2022-09-05T07:08:53.982Z,2.63
2022-09-05T07:11:24.861Z,2.77
2022-09-05T07:14:01.591Z,2.30
2022-09-05T07:16:37.857Z,2.37
2022-09-05T07:19:24.445Z,2.50
2022-09-05T07:22:02.922Z,2.57
2022-09-05T07:24:45.584Z,2.60
2022-09-05T07:27:33.796Z,2.20
2022-09-05T07:30:19.432Z,2.50
2022-09-05T07:32:51.034Z,2.70
2022-09-05T07:35:31.191Z,2.40
2022-09-05T07:38:15.166Z,2.43
2022-09-05T07:41:01.887Z,2.37
2022-09-05T07:43:43.566Z,2.87
2022-09-05T07:46:16.150Z,2.17
2022-09-05T07:48:56.008Z,2.03
2022-09-05T07:56:49.253Z,2.60
2022-09-05T07:56:53.747Z,2.73
2022-09-05T07:57:30.936Z,2.30
2022-09-05T08:00:07.721Z,2.20
2022-09-05T08:02:54.804Z,2.57
2022-09-05T08:05:34.255Z,2.30
2022-09-05T08:08:08.064Z,2.23
2022-09-05T08:11:25.629Z,2.47
2022-09-05T08:13:42.688Z,2.20
2022-09-05T08:16:19.453Z,2.20
2022-09-05T08:18:52.786Z,2.40
2022-09-05T08:21:27.167Z,2.20
2022-09-05T08:24:14.125Z,2.10
2022-09-05T08:27:16.733Z,2.07
2022-09-05T08:30:25.142Z,2.00
2022-09-05T08:32:57.493Z,2.40
2022-09-05T08:35:44.065Z,2.43
2022-09-05T08:38:14.938Z,2.20
2022-09-05T08:40:51.553Z,2.00
2022-09-05T08:45:39.550Z,1.90
2022-09-05T08:46:42.291Z,2.00
2022-09-05T08:49:45.553Z,2.40
2022-09-05T08:52:53.547Z,2.20
2022-09-05T08:55:28.357Z,2.27
2022-09-05T08:58:29.069Z,2.00
2022-09-05T09:01:04.452Z,1.87
2022-09-05T09:03:55.836Z,2.10
2022-09-05T09:06:33.177Z,1.93
2022-09-05T09:09:24.542Z,1.90
2022-09-05T09:11:55.364Z,2.07
2022-09-05T09:14:34.024Z,2.10
2022-09-05T09:17:15.750Z,2.20
2022-09-05T09:19:50.981Z,1.97
2022-09-05T09:22:26.694Z,2.10
2022-09-05T09:25:14.334Z,2.20
2022-09-05T09:28:46.385Z,2.27
2022-09-05T09:31:38.924Z,2.40
2022-09-05T09:34:17.397Z,2.03
2022-09-05T09:37:15.115Z,2.03
2022-09-05T09:40:00.745Z,2.40
2022-09-05T09:42:36.284Z,2.43
2022-09-05T09:45:27.512Z,2.10
2022-09-05T09:48:11.183Z,2.20
2022-09-05T09:51:04.389Z,2.50
2022-09-05T09:53:58.005Z,2.77
2022-09-05T09:56:58.035Z,2.30
2022-09-05T09:59:54.051Z,2.40
2022-09-05T10:05:02.878Z,2.70
2022-09-05T10:10:38.942Z,2.23
2022-09-05T10:10:49.594Z,2.50
2022-09-05T10:12:21.535Z,2.37
2022-09-05T10:15:08.580Z,2.03
2022-09-05T10:18:04.101Z,1.90
2022-09-05T10:21:16.650Z,2.00
2022-09-05T10:23:50.486Z,2.10
2022-09-05T10:26:24.700Z,2.03
2022-09-05T10:29:34.035Z,1.90
2022-09-05T10:35:05.289Z,2.10
2022-09-05T10:35:22.381Z,2.23
2022-09-05T10:38:17.961Z,2.23
2022-09-05T10:41:20.128Z,2.27
2022-09-05T10:43:47.526Z,2.10
2022-09-05T10:46:50.802Z,2.07
2022-09-05T10:49:30.197Z,2.20
2022-09-05T10:52:18.368Z,2.00
2022-09-05T10:54:48.601Z,2.00
2022-09-05T10:57:35.222Z,2.30
2022-09-05T11:02:16.132Z,2.30
2022-09-05T11:03:01.573Z,2.20
2022-09-05T11:05:37.722Z,2.10
2022-09-05T11:08:11.233Z,2.30
2022-09-05T11:10:45.917Z,2.30
2022-09-05T11:13:47.834Z,2.17
2022-09-05T11:16:26.721Z,2.07
2022-09-05T11:19:15.530Z,2.33
2022-09-05T11:22:23.248Z,2.40
2022-09-05T11:24:58.940Z,1.87
2022-09-05T11:27:40.147Z,2.20
2022-09-05T11:30:29.836Z,1.90
2022-09-05T11:39:48.084Z,2.30
2022-09-05T11:40:02.934Z,2.03
2022-09-05T11:40:03.624Z,2.10
2022-09-05T11:42:09.257Z,2.30
2022-09-05T11:45:08.290Z,2.23
2022-09-05T11:47:50.060Z,2.20
2022-09-05T11:50:29.558Z,2.00
2022-09-05T11:53:25.076Z,2.10
2022-09-05T11:56:03.821Z,2.00
2022-09-05T11:58:52.160Z,1.90
2022-09-05T12:01:44.053Z,1.97
2022-09-05T12:04:36.626Z,2.13
2022-09-05T12:07:26.259Z,2.00
2022-09-05T12:10:45.955Z,2.00
2022-09-05T12:13:29.191Z,2.40
2022-09-05T12:16:08.617Z,2.10
2022-09-05T12:19:02.799Z,2.10
2022-09-05T12:22:23.943Z,1.90
2022-09-05T12:25:45.871Z,2.00
2022-09-05T12:29:26.783Z,2.07
2022-09-05T12:33:17.503Z,2.23
2022-09-05T12:36:12.246Z,1.80
2022-09-05T12:40:55.752Z,2.20
2022-09-05T12:41:42.814Z,2.20
2022-09-05T12:44:37.785Z,1.87
2022-09-05T12:47:16.601Z,1.80
2022-09-05T12:50:32.361Z,1.80
2022-09-05T12:53:07.024Z,1.80
2022-09-05T12:55:40.072Z,2.10
2022-09-05T13:02:57.166Z,2.33
2022-09-05T13:03:02.134Z,1.93
2022-09-05T13:04:30.054Z,1.90
2022-09-05T13:07:05.688Z,1.80
2022-09-05T13:10:39.436Z,2.10
2022-09-05T13:14:53.611Z,2.00
2022-09-05T13:15:39.309Z,1.97
2022-09-05T13:18:13.227Z,1.90
2022-09-05T13:20:50.297Z,1.93
2022-09-05T13:23:23.169Z,1.80
2022-09-05T13:25:58.614Z,2.10
2022-09-05T13:28:43.125Z,2.40
2022-09-05T13:37:53.927Z,1.87
2022-09-05T13:38:01.021Z,2.10
2022-09-05T13:38:17.617Z,1.90
2022-09-05T13:39:50.656Z,2.10
2022-09-05T13:42:21.331Z,2.20
2022-09-05T13:44:53.976Z,1.80
2022-09-05T13:47:39.847Z,1.97
2022-09-05T13:50:13.662Z,2.20
2022-09-05T13:52:50.011Z,2.07
2022-09-05T13:55:21.150Z,1.90
2022-09-05T13:58:07.480Z,1.83
2022-09-05T14:00:38.730Z,1.70
2022-09-05T14:03:31.551Z,2.15
2022-09-05T14:06:47.394Z,2.13
2022-09-05T14:09:52.597Z,2.03
2022-09-05T14:12:48.730Z,2.08
2022-09-05T14:16:06.658Z,2.15
2022-09-05T14:19:06.274Z,2.20
2022-09-05T14:21:36.932Z,2.10
2022-09-05T14:24:21.973Z,2.10
2022-09-05T14:27:17.015Z,1.58
2022-09-05T14:30:00.994Z,2.35
2022-09-05T14:37:38.985Z,2.03
2022-09-05T14:37:54.704Z,2.72
2022-09-05T14:39:45.055Z,2.22
2022-09-05T14:42:24.038Z,2.00
2022-09-05T14:45:08.606Z,1.98
2022-09-05T14:48:02.488Z,2.40
2022-09-05T14:50:46.330Z,2.08
2022-09-05T14:58:49.225Z,2.20
2022-09-05T15:02:42.572Z,2.42
2022-09-05T15:02:53.201Z,2.47
2022-09-05T15:05:10.995Z,2.40
2022-09-05T15:08:16.249Z,2.30
2022-09-05T15:12:18.641Z,2.25
2022-09-05T15:13:57.280Z,2.10
2022-09-05T15:16:25.669Z,1.80
2022-09-05T15:18:53.446Z,1.90
2022-09-05T15:21:39.907Z,2.10
2022-09-05T15:24:24.386Z,1.97
2022-09-05T15:26:59.467Z,1.90
2022-09-05T15:29:36.213Z,2.10
2022-09-05T15:32:23.249Z,2.27
2022-09-05T15:34:51.449Z,1.97
2022-09-05T15:37:40.877Z,2.07
2022-09-05T15:40:23.483Z,2.20
2022-09-05T15:43:02.188Z,2.10
2022-09-05T15:45:35.614Z,2.30
2022-09-05T15:48:21.315Z,2.20
2022-09-05T15:50:51.592Z,2.07
2022-09-05T15:53:34.593Z,2.00
2022-09-05T15:56:21.225Z,2.20
2022-09-05T15:58:55.235Z,1.90
2022-09-05T16:01:59.590Z,1.70
2022-09-05T16:06:48.413Z,1.90
2022-09-05T16:10:38.256Z,2.20
2022-09-05T16:10:42.867Z,1.80
2022-09-05T16:13:14.092Z,1.80
2022-09-05T16:21:45.988Z,1.73
2022-09-05T16:23:28.533Z,2.17
2022-09-05T16:23:34.271Z,1.70
2022-09-05T16:24:41.531Z,1.80
2022-09-05T16:27:35.737Z,1.80
2022-09-05T16:30:12.006Z,2.00
2022-09-05T16:32:46.539Z,1.80
2022-09-05T16:35:25.023Z,1.80
2022-09-05T16:38:02.226Z,1.83
2022-09-05T16:40:38.884Z,2.00
2022-09-05T16:43:26.882Z,2.13
2022-09-05T16:46:27.290Z,2.30
2022-09-05T16:48:59.987Z,2.00
2022-09-05T16:51:38.325Z,1.70
2022-09-05T16:54:30.986Z,2.17
2022-09-05T16:57:05.697Z,2.13
2022-09-05T16:59:37.489Z,1.80
2022-09-05T17:02:25.786Z,2.10
2022-09-05T17:05:04.876Z,2.47
2022-09-05T17:07:42.134Z,2.40
2022-09-05T17:10:12.202Z,2.57
2022-09-05T17:12:40.723Z,2.60
2022-09-05T17:15:18.830Z,2.57
2022-09-05T17:18:19.969Z,2.10
2022-09-05T17:20:49.818Z,2.50
2022-09-05T17:29:15.584Z,2.17
2022-09-05T17:29:23.804Z,2.47
2022-09-05T17:32:20.314Z,2.33
2022-09-05T17:35:17.709Z,2.60
2022-09-05T17:38:14.865Z,2.47
2022-09-05T17:41:16.154Z,3.20
2022-09-05T17:43:43.116Z,3.03
2022-09-05T17:46:16.304Z,2.70
2022-09-05T17:48:57.244Z,3.00
2022-09-05T17:51:35.363Z,3.00
2022-09-05T17:54:03.231Z,2.87
2022-09-05T17:56:43.791Z,2.33
2022-09-05T17:59:14.322Z,2.57
2022-09-05T18:01:46.131Z,2.27
2022-09-05T18:04:35.586Z,2.57
2022-09-05T18:07:25.514Z,2.33
2022-09-05T18:10:12.645Z,2.90
2022-09-05T18:13:13.316Z,2.80
2022-09-05T18:15:34.486Z,2.83
2022-09-05T18:18:08.630Z,2.60
2022-09-05T18:21:12.227Z,3.10
2022-09-05T18:26:43.474Z,3.30
2022-09-05T18:29:31.047Z,2.87
2022-09-05T18:32:11.998Z,2.87
2022-09-05T18:34:40.081Z,3.70
2022-09-05T18:37:38.171Z,3.60
2022-09-05T18:40:08.339Z,3.60
2022-09-05T18:42:41.076Z,3.10
2022-09-05T18:45:17.403Z,3.53
2022-09-05T18:48:00.096Z,3.37
2022-09-05T18:50:32.364Z,3.40
2022-09-05T18:53:08.735Z,3.70
2022-09-05T18:56:11.347Z,3.67
2022-09-05T18:58:34.338Z,3.87
2022-09-05T19:01:29.153Z,4.07
2022-09-05T19:04:01.170Z,4.33
2022-09-05T19:06:35.032Z,4.27
2022-09-05T19:09:10.682Z,4.27
2022-09-05T19:11:53.996Z,4.47
2022-09-05T19:14:44.942Z,4.60
2022-09-05T19:17:18.112Z,4.43
2022-09-05T19:20:31.050Z,3.90
2022-09-05T19:23:10.395Z,3.87
2022-09-05T19:25:43.734Z,5.03
2022-09-05T19:36:46.371Z,3.93
2022-09-05T19:37:04.960Z,4.60
2022-09-05T19:37:14.597Z,4.17
2022-09-05T19:37:28.975Z,4.60
2022-09-05T19:43:24.192Z,4.63
2022-09-05T19:47:40.430Z,4.60
2022-09-05T19:47:50.282Z,4.10
2022-09-05T19:48:28.240Z,4.50
2022-09-05T19:51:18.656Z,4.27
2022-09-05T19:53:55.232Z,3.93
2022-09-05T19:56:33.680Z,3.77
2022-09-05T19:59:00.381Z,3.13
2022-09-05T20:01:27.401Z,3.53
2022-09-05T20:03:54.633Z,3.60
2022-09-05T20:06:29.893Z,3.57
2022-09-05T20:09:09.800Z,3.33
2022-09-05T20:11:45.987Z,3.90
2022-09-05T20:14:31.025Z,3.47
2022-09-05T20:17:17.083Z,3.33
2022-09-05T20:19:45.046Z,3.00
2022-09-05T20:22:47.398Z,2.93
2022-09-05T20:25:41.630Z,3.20
2022-09-05T20:28:13.231Z,3.03
2022-09-05T20:30:43.252Z,3.70
2022-09-05T20:33:32.381Z,3.33
2022-09-05T20:41:42.024Z,3.10
2022-09-05T20:43:23.237Z,3.27
2022-09-05T20:43:26.920Z,3.40
2022-09-05T20:44:41.794Z,4.30
2022-09-05T20:54:04.500Z,3.97
2022-09-05T20:54:16.037Z,3.60
2022-09-05T20:54:21.743Z,3.60
2022-09-05T20:55:44.995Z,3.63
2022-09-05T20:58:19.905Z,3.90
2022-09-05T21:01:20.906Z,3.47
2022-09-05T21:03:54.461Z,3.60
2022-09-05T21:06:25.711Z,4.00
2022-09-05T21:08:56.284Z,3.73
2022-09-05T21:11:31.447Z,4.00
2022-09-05T21:14:02.631Z,3.60
2022-09-05T21:16:33.176Z,3.80
2022-09-05T21:18:59.883Z,3.60
2022-09-05T21:21:30.342Z,3.60
2022-09-05T21:24:18.212Z,4.00
2022-09-05T21:26:46.842Z,3.70
2022-09-05T21:29:13.405Z,3.93
2022-09-05T21:31:51.401Z,3.83
2022-09-05T21:34:31.411Z,3.43
2022-09-05T21:37:06.401Z,3.30
2022-09-05T21:39:40.194Z,3.90
2022-09-05T21:42:38.881Z,3.63
2022-09-05T21:47:42.728Z,3.57
2022-09-05T21:47:52.460Z,3.10
2022-09-05T21:50:30.646Z,3.47
2022-09-05T21:53:17.444Z,3.30
2022-09-05T21:59:18.249Z,3.37
2022-09-05T21:59:24.361Z,3.87
2022-09-05T22:01:21.302Z,3.70
2022-09-05T22:04:09.392Z,3.40
2022-09-05T22:06:36.907Z,3.33
2022-09-05T22:09:13.667Z,4.23
2022-09-05T22:11:41.015Z,3.73
2022-09-05T22:14:09.112Z,3.70
2022-09-05T22:16:44.737Z,4.13
2022-09-05T22:19:17.900Z,3.20
2022-09-05T22:21:44.755Z,3.50
2022-09-05T22:24:12.452Z,3.90
2022-09-05T22:27:11.733Z,3.90
2022-09-05T22:29:34.545Z,3.63
2022-09-05T22:32:01.570Z,4.23
2022-09-05T22:38:07.050Z,3.67
2022-09-05T22:40:36.749Z,3.43
2022-09-05T22:43:06.351Z,3.60
2022-09-05T22:45:34.757Z,3.60
2022-09-05T22:48:08.748Z,3.20
2022-09-05T22:50:35.535Z,3.57
2022-09-05T22:56:33.349Z,2.93
2022-09-05T22:58:59.985Z,2.80
2022-09-05T23:01:27.123Z,3.03
2022-09-05T23:03:53.784Z,3.00
2022-09-05T23:06:20.393Z,3.20
2022-09-05T23:08:47.080Z,3.10
2022-09-05T23:11:16.396Z,3.30
2022-09-05T23:13:43.427Z,3.43
2022-09-05T23:16:10.877Z,3.17
2022-09-05T23:18:37.793Z,3.30
2022-09-05T23:21:09.993Z,3.30
2022-09-05T23:23:37.824Z,3.20
2022-09-05T23:26:07.666Z,3.70
2022-09-05T23:28:34.399Z,3.60
2022-09-05T23:31:01.730Z,4.67
2022-09-05T23:33:30.850Z,4.10
2022-09-05T23:36:06.948Z,3.50
2022-09-05T23:38:34.263Z,4.17
2022-09-05T23:41:10.410Z,3.90
2022-09-05T23:43:37.325Z,3.80
2022-09-05T23:46:04.515Z,3.47
2022-09-05T23:48:32.130Z,4.17
2022-09-05T23:51:07.606Z,4.33
2022-09-05T23:53:34.657Z,5.40
2022-09-05T23:56:05.916Z,5.27
2022-09-05T23:58:33.183Z,5.27
